SILO ALERT LOG
| Silo ID | Alert Type | Alert Message | Silo Type | Points | Depth (mm) | Strength | Temperature (°C) | Humidity (%) | Height (mm) | Volume (㎥) | Weight (t) | Flag | Time |
|---|---|---|---|---|---|---|---|---|---|---|---|---|---|
| WJWJR05 | Humidity | 습도센서 측정값이 80% 초과 | 평 | 56 | 7520 | 2690 | 27.9 | 82.2 | 200 | 22.619 | 14.3 | 0 | 2026-07-23 22:25:46.000 |
| WJWJR01 | Humidity | 습도센서 측정값이 80% 초과 | 평 | 83 | 7680 | 1066 | 27 | 90.2 | -40 | -4.524 | 0 | 0 | 2026-07-23 21:26:07.000 |
| WJWJR05 | Humidity | 습도센서 측정값이 80% 초과 | 평 | 58 | 7670 | 2642 | 28.3 | 82 | 49 | 5.655 | 3.575 | 0 | 2026-07-23 21:25:48.000 |
| WJWJR05 | Humidity | 습도센서 측정값이 80% 초과 | 평 | 57 | 8570 | 2674 | 28.8 | 81.6 | -850 | -96.133 | 0 | 0 | 2026-07-23 20:25:53.000 |
| WJWJR05 | Humidity | 습도센서 측정값이 80% 초과 | 평 | 56 | 7670 | 2638 | 29.2 | 81.2 | 49 | 5.655 | 3.575 | 0 | 2026-07-23 19:25:44.000 |
| WJWJR05 | Humidity | 습도센서 측정값이 80% 초과 | 평 | 60 | 7670 | 2646 | 29.5 | 81.4 | 49 | 5.655 | 3.575 | 0 | 2026-07-23 18:25:42.000 |
| WJWJR01 | Humidity | 습도센서 측정값이 80% 초과 | 평 | 76 | 7690 | 1045 | 29 | 88.8 | -50 | -5.655 | 0 | 0 | 2026-07-23 17:26:10.000 |
| WJWJR05 | Humidity | 습도센서 측정값이 80% 초과 | 평 | 56 | 7470 | 2649 | 29.7 | 81.4 | 250 | 28.274 | 17.875 | 0 | 2026-07-23 17:25:44.000 |
| WJWJR05 | Humidity | 습도센서 측정값이 80% 초과 | 평 | 58 | 7670 | 2669 | 29.8 | 82.3 | 49 | 5.655 | 3.575 | 0 | 2026-07-23 16:25:49.000 |
| WJWJR05 | Humidity | 습도센서 측정값이 80% 초과 | 평 | 61 | 7680 | 2666 | 30 | 82.9 | 40 | 4.524 | 2.86 | 0 | 2026-07-23 15:25:45.000 |
| WJWJR05 | Humidity | 습도센서 측정값이 80% 초과 | 평 | 56 | 7660 | 2645 | 30 | 85.2 | 59 | 6.786 | 4.29 | 0 | 2026-07-23 14:25:44.000 |
| WJWJR01 | Humidity | 습도센서 측정값이 80% 초과 | 평 | 75 | 7650 | 996 | 29.3 | 96.2 | -10 | -1.131 | 0 | 0 | 2026-07-23 13:26:03.000 |
| WJWJR05 | Humidity | 습도센서 측정값이 80% 초과 | 평 | 59 | 7690 | 2618 | 29.5 | 87.9 | 29 | 3.393 | 2.145 | 0 | 2026-07-23 13:25:48.000 |
| WJWJR01 | Humidity | 습도센서 측정값이 80% 초과 | 평 | 84 | 7690 | 1006 | 28.5 | 96.8 | -50 | -5.655 | 0 | 0 | 2026-07-23 12:25:59.000 |
| WJWJR05 | Humidity | 습도센서 측정값이 80% 초과 | 평 | 58 | 7600 | 2631 | 28.7 | 89.5 | 120 | 13.572 | 8.58 | 0 | 2026-07-23 12:25:46.000 |
| WJWJR01 | Humidity | 습도센서 측정값이 80% 초과 | 평 | 84 | 7700 | 995 | 27.7 | 97.2 | -60 | -6.786 | 0 | 0 | 2026-07-23 11:26:02.000 |
| WJWJR05 | Humidity | 습도센서 측정값이 80% 초과 | 평 | 61 | 7680 | 2622 | 28 | 89.1 | 40 | 4.524 | 2.86 | 0 | 2026-07-23 11:25:47.000 |
| WJWJR01 | Humidity | 습도센서 측정값이 80% 초과 | 평 | 84 | 7690 | 1013 | 26.5 | 97.2 | -50 | -5.655 | 0 | 0 | 2026-07-23 10:26:00.000 |
| WJWJR05 | Humidity | 습도센서 측정값이 80% 초과 | 평 | 61 | 7700 | 2579 | 27.2 | 87 | 19 | 2.262 | 1.43 | 0 | 2026-07-23 10:25:48.000 |
| WJWJR01 | Humidity | 습도센서 측정값이 80% 초과 | 평 | 77 | 7660 | 1022 | 25.6 | 96.7 | -20 | -2.262 | 0 | 0 | 2026-07-23 09:25:56.000 |
[첫 페이지] [19] [20] [21] [22] 23 [24] [25] [26] [27] [마지막 페이지]